createdAt,value
2019-03-01T00:01:03.693Z,98690.11
2019-03-01T00:04:37.946Z,98686.57
2019-03-01T00:08:14.251Z,98692.45
2019-03-01T00:15:50.348Z,98693.53
2019-03-01T00:19:14.050Z,98685.00
2019-03-01T00:23:16.598Z,98683.09
2019-03-01T00:27:01.700Z,98684.96
2019-03-01T00:30:28.865Z,98691.23
2019-03-01T00:33:57.724Z,98682.36
2019-03-01T00:38:02.715Z,98676.06
2019-03-01T00:41:25.715Z,98678.00
2019-03-01T00:44:41.174Z,98667.98
2019-03-01T00:47:55.043Z,98666.47
2019-03-01T00:51:08.830Z,98666.53
2019-03-01T00:54:22.316Z,98662.07
2019-03-01T00:57:35.911Z,98670.44
2019-03-01T01:00:49.590Z,98653.63
2019-03-01T01:04:03.288Z,98657.21
2019-03-01T01:07:17.074Z,98644.40
2019-03-01T01:10:30.647Z,98646.77
2019-03-01T01:13:44.143Z,98644.53
2019-03-01T01:16:58.090Z,98642.50
2019-03-01T01:20:11.857Z,98641.88
2019-03-01T01:23:25.352Z,98645.75
2019-03-01T01:26:39.188Z,98636.52
2019-03-01T01:29:52.680Z,98637.08
2019-03-01T01:33:06.423Z,98629.86
2019-03-01T01:36:20.492Z,98623.12
2019-03-01T01:39:33.979Z,98622.36
2019-03-01T01:42:47.487Z,98620.25
2019-03-01T01:46:00.957Z,98617.59
2019-03-01T01:49:14.746Z,98608.80
2019-03-01T01:52:28.332Z,98600.84
2019-03-01T01:55:41.837Z,98601.34
2019-03-01T01:58:55.559Z,98595.69
2019-03-01T02:02:09.481Z,98594.67
2019-03-01T02:05:23.597Z,98592.86
2019-03-01T02:08:37.659Z,98585.88
2019-03-01T02:11:51.435Z,98586.55
2019-03-01T02:15:06.873Z,98586.72
2019-03-01T02:18:20.460Z,98580.63
2019-03-01T02:21:36.161Z,98575.37
2019-03-01T02:24:49.936Z,98567.77
2019-03-01T02:28:03.620Z,98570.16
2019-03-01T02:31:17.696Z,98566.98
2019-03-01T02:34:31.187Z,98569.63
2019-03-01T02:37:45.070Z,98564.02
2019-03-01T02:40:58.571Z,98556.98
2019-03-01T02:44:12.324Z,98548.47
2019-03-01T02:47:25.904Z,98547.70
2019-03-01T02:50:39.503Z,98543.39
2019-03-01T02:53:53.002Z,98538.27
2019-03-01T02:57:06.581Z,98541.80
2019-03-01T03:00:22.374Z,98540.03
2019-03-01T03:03:36.207Z,98534.52
2019-03-01T03:06:58.040Z,98537.16
2019-03-01T03:10:12.547Z,98540.70
2019-03-01T03:13:26.026Z,98530.72
2019-03-01T03:16:39.805Z,98515.70
2019-03-01T03:19:53.288Z,98511.77
2019-03-01T03:23:06.776Z,98517.91
2019-03-01T03:26:20.266Z,98506.66
2019-03-01T03:29:33.872Z,98501.89
2019-03-01T03:32:47.657Z,98499.64
2019-03-01T03:36:01.124Z,98501.58
2019-03-01T03:39:14.608Z,98493.49
2019-03-01T03:42:28.113Z,98492.13
2019-03-01T03:45:41.886Z,98488.64
2019-03-01T03:48:55.369Z,98484.71
2019-03-01T03:52:09.124Z,98483.08
2019-03-01T03:55:22.814Z,98480.69
2019-03-01T03:58:36.501Z,98479.20
2019-03-01T04:01:50.099Z,98475.63
2019-03-01T04:05:04.544Z,98477.88
2019-03-01T04:08:18.233Z,98469.53
2019-03-01T04:11:31.833Z,98476.45
2019-03-01T04:14:45.560Z,98471.64
2019-03-01T04:17:59.459Z,98468.73
2019-03-01T04:21:12.935Z,98461.98
2019-03-01T04:24:26.418Z,98459.59
2019-03-01T04:27:40.047Z,98463.66
2019-03-01T04:30:53.624Z,98456.16
2019-03-01T04:34:07.116Z,98457.17
2019-03-01T04:37:20.978Z,98454.70
2019-03-01T04:40:34.463Z,98454.66
2019-03-01T04:43:47.965Z,98454.44
2019-03-01T04:47:01.453Z,98449.19
2019-03-01T04:50:15.047Z,98448.00
2019-03-01T04:53:28.538Z,98444.16
2019-03-01T04:56:42.029Z,98436.78
2019-03-01T04:59:55.733Z,98437.41
2019-03-01T05:03:09.497Z,98433.11
2019-03-01T05:06:22.990Z,98429.75
2019-03-01T05:09:36.499Z,98431.87
2019-03-01T05:12:50.288Z,98432.19
2019-03-01T05:16:03.969Z,98423.93
2019-03-01T05:19:17.473Z,98424.20
2019-03-01T05:22:31.283Z,98420.80
2019-03-01T05:25:44.767Z,98417.98
2019-03-01T05:28:58.530Z,98414.09
2019-03-01T05:32:12.019Z,98418.00
2019-03-01T05:35:25.522Z,98417.20
2019-03-01T05:38:39.259Z,98417.34
2019-03-01T05:41:52.736Z,98418.67
2019-03-01T05:45:12.108Z,98415.89
2019-03-01T05:48:25.708Z,98413.87
2019-03-01T05:51:39.308Z,98410.23
2019-03-01T05:54:52.787Z,98407.77
2019-03-01T05:58:27.377Z,98399.09
2019-03-01T06:01:46.224Z,98405.02
2019-03-01T06:05:03.726Z,98407.78
2019-03-01T06:08:37.274Z,98406.98
2019-03-01T06:12:17.442Z,98401.06
2019-03-01T06:15:55.143Z,98410.39
2019-03-01T06:19:55.819Z,98402.52
2019-03-01T06:23:31.750Z,98405.98
2019-03-01T06:27:35.543Z,98409.69
2019-03-01T06:31:30.461Z,98403.78
2019-03-01T06:35:44.312Z,98410.80
2019-03-01T06:39:38.155Z,98413.88
2019-03-01T06:43:02.580Z,98413.39
2019-03-01T06:46:42.331Z,98413.62
2019-03-01T06:50:14.713Z,98407.53
2019-03-01T06:53:28.215Z,98403.16
2019-03-01T06:56:41.729Z,98406.73
2019-03-01T06:59:55.303Z,98402.23
2019-03-01T07:03:08.998Z,98409.73
2019-03-01T07:06:22.503Z,98411.55
2019-03-01T07:09:36.184Z,98411.72
2019-03-01T07:12:49.984Z,98413.57
2019-03-01T07:16:03.587Z,98414.02
2019-03-01T07:19:17.071Z,98420.72
2019-03-01T07:22:30.575Z,98418.82
2019-03-01T07:25:44.186Z,98425.39
2019-03-01T07:28:57.672Z,98425.13
2019-03-01T07:32:11.163Z,98423.57
2019-03-01T07:35:25.061Z,98419.88
2019-03-01T07:38:38.792Z,98412.59
2019-03-01T07:41:52.298Z,98423.44
2019-03-01T07:45:07.366Z,98417.91
2019-03-01T07:48:20.868Z,98420.86
2019-03-01T07:51:35.988Z,98429.97
2019-03-01T07:54:52.766Z,98437.12
2019-03-01T07:58:05.468Z,98443.99
2019-03-01T08:01:19.157Z,98439.80
2019-03-01T08:04:32.640Z,98441.42
2019-03-01T08:07:55.624Z,98440.38
2019-03-01T08:11:01.845Z,98435.42
2019-03-01T08:14:15.698Z,98428.89
2019-03-01T08:17:31.626Z,98442.12
2019-03-01T08:20:45.168Z,98434.66
2019-03-01T08:23:58.687Z,98450.20
2019-03-01T08:27:12.338Z,98442.30
2019-03-01T08:30:26.248Z,98446.36
2019-03-01T08:33:43.455Z,98451.63
2019-03-01T08:36:55.148Z,98451.70
2019-03-01T08:40:14.705Z,98457.23
2019-03-01T08:43:29.059Z,98464.53
2019-03-01T08:46:45.430Z,98472.22
2019-03-01T08:49:57.982Z,98470.27
2019-03-01T08:53:15.046Z,98465.81
2019-03-01T08:56:27.136Z,98462.36
2019-03-01T08:59:40.610Z,98465.26
2019-03-01T09:02:56.320Z,98465.87
2019-03-01T09:06:10.000Z,98471.61
2019-03-01T09:09:23.485Z,98470.72
2019-03-01T09:12:37.209Z,98481.18
2019-03-01T09:15:50.826Z,98476.58
2019-03-01T09:19:04.595Z,98467.19
2019-03-01T09:22:18.072Z,98474.16
2019-03-01T09:25:31.559Z,98470.09
2019-03-01T09:28:45.359Z,98462.16
2019-03-01T09:31:58.983Z,98466.52
2019-03-01T09:35:26.444Z,98480.38
2019-03-01T09:38:42.878Z,98473.27
2019-03-01T09:42:02.852Z,98472.70
2019-03-01T09:45:13.671Z,98469.14
2019-03-01T09:48:27.409Z,98486.91
2019-03-01T09:51:43.784Z,98482.28
2019-03-01T09:54:56.366Z,98484.61
2019-03-01T09:58:09.853Z,98489.28
2019-03-01T10:01:23.485Z,98491.82
2019-03-01T10:04:37.531Z,98491.12
2019-03-01T10:07:51.232Z,98499.66
2019-03-01T10:11:04.944Z,98511.23
2019-03-01T10:14:20.274Z,98504.27
2019-03-01T10:17:34.212Z,98517.21
2019-03-01T10:20:48.668Z,98514.02
2019-03-01T10:24:02.538Z,98515.92
2019-03-01T10:27:16.030Z,98519.38
2019-03-01T10:30:29.620Z,98523.31
2019-03-01T10:33:43.192Z,98525.58
2019-03-01T10:36:56.929Z,98536.75
2019-03-01T10:40:12.495Z,98540.03
2019-03-01T10:43:25.966Z,98542.12
2019-03-01T10:46:39.471Z,98551.33
2019-03-01T10:49:53.274Z,98560.13
2019-03-01T10:53:07.153Z,98566.11
2019-03-01T10:56:20.791Z,98560.63
2019-03-01T10:59:34.507Z,98566.80
2019-03-01T11:02:48.144Z,98566.99
2019-03-01T11:06:02.031Z,98574.41
2019-03-01T11:09:15.599Z,98570.48
2019-03-01T11:12:29.182Z,98577.34
2019-03-01T11:15:42.757Z,98575.81
2019-03-01T11:18:56.228Z,98576.28
2019-03-01T11:22:10.125Z,98576.45
2019-03-01T11:25:23.921Z,98574.63
2019-03-01T11:28:37.415Z,98575.68
2019-03-01T11:31:51.007Z,98582.42
2019-03-01T11:35:05.091Z,98585.58
2019-03-01T11:38:18.587Z,98586.09
2019-03-01T11:41:32.555Z,98582.48
2019-03-01T11:44:46.026Z,98590.11
2019-03-01T11:47:59.627Z,98593.00
2019-03-01T11:51:13.355Z,98588.95
2019-03-01T11:54:26.840Z,98587.15
2019-03-01T11:57:40.330Z,98590.25
2019-03-01T12:00:54.376Z,98591.22
2019-03-01T12:04:07.878Z,98597.66
2019-03-01T12:07:21.620Z,98602.52
2019-03-01T12:10:35.216Z,98598.87
2019-03-01T12:13:48.698Z,98596.69
2019-03-01T12:17:02.925Z,98605.19
2019-03-01T12:20:17.974Z,98614.08
2019-03-01T12:23:31.572Z,98611.34
2019-03-01T12:26:45.164Z,98620.67
2019-03-01T12:29:58.986Z,98638.02
2019-03-01T12:33:12.728Z,98634.61
2019-03-01T12:36:26.463Z,98635.94
2019-03-01T12:39:40.236Z,98637.85
2019-03-01T12:42:54.172Z,98626.99
2019-03-01T12:46:07.847Z,98623.77
2019-03-01T12:49:22.337Z,98612.31
2019-03-01T12:52:36.378Z,98607.95
2019-03-01T12:55:49.858Z,98609.36
2019-03-01T12:59:03.802Z,98619.84
2019-03-01T13:02:20.318Z,98629.62
2019-03-01T13:05:33.861Z,98636.77
2019-03-01T13:08:51.116Z,98636.33
2019-03-01T13:12:03.004Z,98637.93
2019-03-01T13:15:16.688Z,98638.87
2019-03-01T13:18:30.213Z,98637.58
2019-03-01T13:21:45.512Z,98634.89
2019-03-01T13:24:59.390Z,98642.91
2019-03-01T13:28:13.503Z,98638.88
2019-03-01T13:31:27.180Z,98645.97
2019-03-01T13:34:40.799Z,98641.67
2019-03-01T13:37:55.476Z,98644.28
2019-03-01T13:41:09.784Z,98646.48
2019-03-01T13:44:23.262Z,98645.50
2019-03-01T13:47:37.011Z,98659.81
2019-03-01T13:50:50.676Z,98657.02
2019-03-01T13:54:05.783Z,98662.16
2019-03-01T13:57:19.948Z,98674.66
2019-03-01T14:00:33.943Z,98668.20
2019-03-01T14:03:47.431Z,98670.33
2019-03-01T14:07:01.150Z,98670.88
2019-03-01T14:10:16.690Z,98676.36
2019-03-01T14:13:30.448Z,98675.94
2019-03-01T14:16:43.944Z,98678.38
2019-03-01T14:19:57.412Z,98689.60
2019-03-01T14:23:10.886Z,98685.72
2019-03-01T14:26:24.373Z,98690.30
2019-03-01T14:29:37.827Z,98688.94
2019-03-01T14:32:56.920Z,98693.66
2019-03-01T14:36:07.006Z,98696.61
2019-03-01T14:39:20.490Z,98701.81
2019-03-01T14:42:33.987Z,98709.25
2019-03-01T14:45:48.138Z,98716.52
2019-03-01T14:49:01.808Z,98725.09
2019-03-01T14:52:18.252Z,98729.02
2019-03-01T14:55:33.888Z,98732.12
2019-03-01T14:59:02.352Z,98724.91
2019-03-01T15:02:56.204Z,98730.74
2019-03-01T15:06:09.888Z,98731.53
2019-03-01T15:09:23.359Z,98737.06
2019-03-01T15:12:37.103Z,98748.22
2019-03-01T15:15:50.809Z,98749.99
2019-03-01T15:19:04.675Z,98757.00
2019-03-01T15:22:19.711Z,98760.31
2019-03-01T15:25:33.403Z,98756.14
2019-03-01T15:28:55.296Z,98756.23
2019-03-01T15:32:07.136Z,98754.81
2019-03-01T15:35:20.647Z,98753.61
2019-03-01T15:38:34.331Z,98761.63
2019-03-01T15:41:48.210Z,98772.26
2019-03-01T15:45:05.001Z,98771.20
2019-03-01T15:48:17.346Z,98763.70
2019-03-01T15:51:31.110Z,98771.53
2019-03-01T15:54:47.773Z,98772.77
2019-03-01T15:58:01.849Z,98776.80
2019-03-01T16:01:15.693Z,98764.53
2019-03-01T16:04:30.408Z,98776.17
2019-03-01T16:07:44.657Z,98778.83
2019-03-01T16:10:58.159Z,98783.51
2019-03-01T16:14:11.645Z,98787.94
2019-03-01T16:17:25.445Z,98781.73
2019-03-01T16:20:39.251Z,98788.81
2019-03-01T16:23:52.747Z,98788.36
2019-03-01T16:27:08.629Z,98788.63
2019-03-01T16:30:21.938Z,98782.80
2019-03-01T16:33:35.673Z,98792.09
2019-03-01T16:36:52.111Z,98795.00
2019-03-01T16:40:08.391Z,98798.92
2019-03-01T16:43:22.258Z,98806.14
2019-03-01T16:46:36.103Z,98810.45
2019-03-01T16:49:49.595Z,98806.64
2019-03-01T16:53:04.607Z,98814.09
2019-03-01T16:56:19.331Z,98818.05
2019-03-01T16:59:32.937Z,98825.58
2019-03-01T17:02:46.672Z,98823.30
2019-03-01T17:06:00.647Z,98834.61
2019-03-01T17:09:15.536Z,98844.27
2019-03-01T17:12:30.408Z,98847.23
2019-03-01T17:15:45.550Z,98852.38
2019-03-01T17:18:59.612Z,98856.73
2019-03-01T17:22:13.355Z,98865.47
2019-03-01T17:25:27.724Z,98859.58
2019-03-01T17:28:41.363Z,98869.67
2019-03-01T17:31:54.958Z,98867.27
2019-03-01T17:35:08.788Z,98875.34
2019-03-01T17:38:22.279Z,98874.48
2019-03-01T17:41:36.332Z,98875.61
2019-03-01T17:44:50.155Z,98880.62
2019-03-01T17:48:03.852Z,98883.67
2019-03-01T17:51:18.199Z,98893.15
2019-03-01T17:54:33.054Z,98905.47
2019-03-01T17:57:46.817Z,98912.88
2019-03-01T18:01:02.694Z,98910.97
2019-03-01T18:04:16.024Z,98916.22
2019-03-01T18:07:29.695Z,98908.91
2019-03-01T18:10:43.447Z,98908.54
2019-03-01T18:14:00.612Z,98909.43
2019-03-01T18:17:12.705Z,98915.95
2019-03-01T18:20:26.629Z,98915.19
2019-03-01T18:23:40.894Z,98922.62
2019-03-01T18:26:54.390Z,98926.70
2019-03-01T18:30:16.114Z,98927.63
2019-03-01T18:33:29.384Z,98931.33
2019-03-01T18:36:43.042Z,98929.80
2019-03-01T18:39:57.372Z,98932.97
2019-03-01T18:43:13.083Z,98951.77
2019-03-01T18:46:26.453Z,98948.19
2019-03-01T18:49:39.958Z,98958.95
2019-03-01T18:52:54.230Z,98954.18
2019-03-01T18:56:07.975Z,98962.75
2019-03-01T18:59:24.601Z,98964.31
2019-03-01T19:02:37.619Z,98968.41
2019-03-01T19:05:51.245Z,98967.66
2019-03-01T19:09:06.451Z,98968.95
2019-03-01T19:12:20.415Z,98975.88
2019-03-01T19:15:35.199Z,98978.05
2019-03-01T19:18:51.226Z,98981.00
2019-03-01T19:22:04.357Z,98981.25
2019-03-01T19:25:18.235Z,98982.53
2019-03-01T19:28:31.971Z,98983.27
2019-03-01T19:31:45.460Z,98984.30
2019-03-01T19:34:59.300Z,98982.53
2019-03-01T19:38:13.133Z,98985.19
2019-03-01T19:41:26.900Z,98980.97
2019-03-01T19:44:40.410Z,98980.72
2019-03-01T19:47:54.284Z,98984.05
2019-03-01T19:51:08.059Z,98984.16
2019-03-01T19:54:21.559Z,98987.64
2019-03-01T19:57:36.360Z,98988.14
2019-03-01T20:00:50.620Z,98988.43
2019-03-01T20:04:04.281Z,98996.36
2019-03-01T20:07:19.788Z,98998.92
2019-03-01T20:10:33.790Z,99004.05
2019-03-01T20:13:50.559Z,99007.49
2019-03-01T20:17:03.256Z,99012.51
2019-03-01T20:20:17.707Z,99017.38
2019-03-01T20:23:33.964Z,99023.50
2019-03-01T20:26:47.569Z,99021.72
2019-03-01T20:30:01.371Z,99032.11
2019-03-01T20:33:14.979Z,99027.09
2019-03-01T20:36:28.459Z,99036.48
2019-03-01T20:39:42.241Z,99049.03
2019-03-01T20:42:59.844Z,99042.62
2019-03-01T20:46:11.331Z,99054.27
2019-03-01T20:49:25.187Z,99059.50
2019-03-01T20:52:39.106Z,99061.45
2019-03-01T20:55:52.930Z,99060.17
2019-03-01T20:59:06.695Z,99063.39
2019-03-01T21:02:20.383Z,99069.45
2019-03-01T21:05:33.991Z,99066.77
2019-03-01T21:08:47.491Z,99069.72
2019-03-01T21:12:01.241Z,99070.95
2019-03-01T21:15:15.714Z,99070.52
2019-03-01T21:18:30.795Z,99073.82
2019-03-01T21:21:44.912Z,99080.40
2019-03-01T21:24:59.422Z,99078.54
2019-03-01T21:28:13.821Z,99081.39
2019-03-01T21:31:27.299Z,99086.05
2019-03-01T21:34:40.796Z,99089.99
2019-03-01T21:37:54.637Z,99089.19
2019-03-01T21:41:09.809Z,99098.00
2019-03-01T21:44:23.541Z,99092.57
2019-03-01T21:47:37.020Z,99088.03
2019-03-01T21:50:51.257Z,99094.91
2019-03-01T21:54:05.327Z,99090.80
2019-03-01T21:57:18.818Z,99090.84
2019-03-01T22:00:34.742Z,99090.84
2019-03-01T22:03:47.999Z,99094.20
2019-03-01T22:07:02.757Z,99092.45
2019-03-01T22:10:16.883Z,99095.52
2019-03-01T22:13:32.553Z,99084.82
2019-03-01T22:16:45.757Z,99082.77
2019-03-01T22:19:59.362Z,99082.92
2019-03-01T22:23:15.689Z,99089.22
2019-03-01T22:26:29.064Z,99088.92
2019-03-01T22:29:43.549Z,99096.32
2019-03-01T22:32:58.291Z,99094.70
2019-03-01T22:36:11.758Z,99088.82
2019-03-01T22:39:25.522Z,99085.22
2019-03-01T22:42:39.214Z,99090.84
2019-03-01T22:45:52.713Z,99089.91
2019-03-01T22:49:06.195Z,99097.58
2019-03-01T22:52:19.691Z,99092.05
2019-03-01T22:55:33.496Z,99102.06
2019-03-01T22:58:47.062Z,99101.72
2019-03-01T23:02:04.423Z,99100.67
2019-03-01T23:05:19.361Z,99098.12
2019-03-01T23:08:35.570Z,99102.03
2019-03-01T23:11:48.498Z,99102.55
2019-03-01T23:15:02.795Z,99099.53
2019-03-01T23:18:17.839Z,99098.88
2019-03-01T23:21:32.610Z,99096.80
2019-03-01T23:24:47.079Z,99098.00
2019-03-01T23:28:04.029Z,99096.10
2019-03-01T23:31:16.514Z,99092.55
2019-03-01T23:34:30.000Z,99092.58
2019-03-01T23:37:43.499Z,99088.44
2019-03-01T23:40:57.082Z,99089.95
2019-03-01T23:44:10.580Z,99083.56
2019-03-01T23:47:24.370Z,99085.08
2019-03-01T23:50:37.847Z,99090.95
2019-03-01T23:53:51.343Z,99085.80
2019-03-01T23:57:05.610Z,99088.00
